Terminal Aerodrome Forecast
Issued by NWS Charleston, WV

Current Version | Previous Version | Graphics & Text | Print | Product List | Glossary On
Versions: 1 2 3 4 5 6 7 8 9 10 11 12 13 14 15 16 17 18 19 20 21 22 23 24 25 26 27 28 29 30 31 32
226
FTUS41 KRLX 220239 AAA
TAFPKB
TAF AMD
KPKB 220239Z 2203/2224 23004KT 5SM BR FEW025
     FM220700 00000KT 1SM BR SCT100
     FM221000 00000KT 1/2SM FG BKN005
     FM221200 VRB03KT 2SM BR BKN003
     FM221300 19004KT P6SM SCT015
     FM221900 23006KT P6SM -SHRA VCTS BKN035CB
     FM222300 23007KT P6SM BKN035=

USA.gov is the U.S. government's official web portal to all federal, state and local government web resources and services.